logo
App data

The Ship: Single Player

The Ship is a murder mystery alternative to traditional FPS multiplayer games - hunt and be hunted! Package includes multiplayer, single player and tutorial.
Store | Hub | SteamDB | Site
Developer: Outerlight Ltd. Publisher: Blazing Griffin Ltd.
Genre: Action, Indie, RPG
Languages: English, French, German, Italian, Spanish - Spain, Polish, Russian, Japanese
Tags: Action (40), RPG (39), Indie (38), Singleplayer (20), FPS (10), First-Person (5)
Category: Single-player
Release date: Nov 20, 2006
Price: $9.99
Old userscore: 70% Owners: 200,000 .. 500,000
Followers: 888
Peak concurrent players yesterday: 2
Playtime total: 01:15 (average) 00:39 (median)

Steam Spy is still in beta, so expect major bugs.

Owners data:

Access restricted.

This feature is only available to users with special access rights. Sorry.

If you want to proceed, you need to register or log in first and then back Steam Spy on Patreon. Look for Indie or Pro pledge.

Don't forget to use the same email as on Steam Spy!

Audience in 2 weeks:

Access restricted.

This feature is only available to users with special access rights. Sorry.

If you want to proceed, you need to register or log in first and then back Steam Spy on Patreon. Look for Indie or Pro pledge.

Don't forget to use the same email as on Steam Spy!

Peak daily concurrent players:

CCU data courtesy of SteamDB. Used with permission.

Hourly concurrent players:

YouTube:

The views data is based on top 50 videos uploaded last week. Actual number of views might be more than the number shown.

The displayed number of videos uploaded yesterday is limited to 50, so if there were more videos uploaded, the number will still show 50.

If the game has commonly used word as its name (like "FEAR" or "Volume") its number of Youtube views might be wrong.

Games similar to this one:

# Game Release date
Price
Score rank
(Userscore / Metascore)
Owners
Players
Playtime (Median)
1 Sam & Max 301: The Penal Zone N/A95% (92%)0 .. 20,0000%00:00 (00:00)
2 Disney Epic Mickey 2: The Power of Two Nov 18, 2012 $19.99N/A (N/A)20,000 .. 50,0002.38%00:02 (00:00)
3 Inversion Jul 26, 2012 $9.99N/A (N/A)20,000 .. 50,0000%00:00 (00:00)
4 Xmas Shooting - Scramble!! Dec 16, 2016 $4.99N/A (N/A)0 .. 20,0000%00:00 (00:00)
5 Warp Mar 21, 2012 $9.99N/A (N/A)20,000 .. 50,0000%00:00 (00:00)
6 Vertigo Dec 22, 2016 $14.99N/A (N/A)0 .. 20,0000%00:00 (00:00)
7 Painkiller: Resurrection Oct 27, 2009 $9.99N/A (N/A/38%)100,000 .. 200,0000.75%01:53 (01:03)
8 Mighty Gunvolt Sep 29, 2015 $4.99N/A (N/A)20,000 .. 50,0000%00:00 (00:00)
9 Iron Grip: Warlord Dec 5, 2008 N/AN/A (N/A/59%)100,000 .. 200,0000%00:00 (00:00)
10 Hocus Pocus Jun 1, 1994 $4.99N/A (N/A)0 .. 20,0000.66%00:07 (00:02)
11 Tom Clancy's Rainbow Six Lockdown Feb 14, 2006 $9.99N/A (N/A/59%)50,000 .. 100,0001.72%00:08 (00:05)
12 Disney G-Force Jul 21, 2009 $19.99N/A (N/A/61%)0 .. 20,0000%00:00 (00:00)
13 Judge Dredd: Dredd vs. Death Feb 28, 2005 $7.99N/A (N/A/55%)50,000 .. 100,0000%00:00 (00:00)
14 Elliot Quest Nov 10, 2014 $9.99N/A (N/A)20,000 .. 50,0000%00:00 (00:00)
15 Aces Wild: Manic Brawling Action! Aug 8, 2013 $9.99N/A (N/A)50,000 .. 100,0000%00:00 (00:00)
16 Thunder Wolves May 15, 2013 $9.99N/A (N/A/69%)100,000 .. 200,0000%00:00 (00:00)
17 Foreign Legion: Multi Massacre Jul 9, 2012 $6.99N/A (N/A)50,000 .. 100,0000%00:00 (00:00)
18 Deformers Apr 20, 2017 N/AN/A (N/A)0 .. 20,0000%00:00 (00:00)
19 The First Templar - Steam Special Edition May 12, 2011 $1.99N/A (N/A/57%)100,000 .. 200,0000%00:00 (00:00)
20 Emmerholt: Prologue Feb 14, 2017 FreeN/A (N/A)0 .. 20,0000%00:00 (00:00)
21 Zombie Shooter 2 Sep 23, 2009 $9.99N/A (N/A)100,000 .. 200,0000%00:00 (00:00)
22 Grey Cubes May 15, 2015 N/AN/A (N/A)20,000 .. 50,0001.11%00:04 (00:01)
23 Alien Breed: Impact Jun 3, 2010 $9.99N/A (N/A/64%)200,000 .. 500,0000%00:00 (00:00)
24 Raptor: Call of The Shadows - 2015 Edition Apr 1, 1994 $4.99N/A (N/A)20,000 .. 50,0000%00:00 (00:00)
25 Larva Mortus Mar 19, 2009 $4.99N/A (N/A/64%)100,000 .. 200,0000.28%00:21 (00:07)
26 Manhunter Jan 29, 2013 $4.99N/A (N/A)100,000 .. 200,0000.37%00:07 (00:02)
27 Explodemon Nov 3, 2011 $8.99N/A (N/A)20,000 .. 50,0000%00:00 (00:00)
28 Strike Vector Jan 28, 2014 $11.99N/A (N/A/73%)100,000 .. 200,0000%00:00 (00:00)
29 MDK2 HD Jul 30, 2012 $14.99N/A (N/A/73%)0 .. 20,0000%00:00 (00:00)
30 STAR WARS SHADOWS OF THE EMPIRE Sep 17, 1997 $5.99N/A (N/A)50,000 .. 100,0000%00:00 (00:00)
31 Alien Zombie Megadeath Oct 18, 2011 $4.99N/A (N/A)20,000 .. 50,0000%00:00 (00:00)
32 Fossil Echo Jul 8, 2016 $9.99N/A (N/A/61%)0 .. 20,0000%00:00 (00:00)
33 AquaNox Nov 30, 2001 $1.24N/A (N/A/67%)100,000 .. 200,0000%00:00 (00:00)
34 Square Brawl Oct 22, 2015 $4.99N/A (N/A)0 .. 20,0000%00:00 (00:00)
35 Delta Force Xtreme 2 Jun 2, 2009 $19.99N/A (N/A)0 .. 20,0000%00:00 (00:00)
36 Stargunner Nov 19, 1996 FreeN/A (N/A)0 .. 20,0000%00:00 (00:00)
37 Rayman Raving Rabbids Mar 27, 2007 $9.99N/A (N/A/58%)20,000 .. 50,0000%00:00 (00:00)
38 Raiden IV: OverKill Sep 3, 2015 $14.99N/A (N/A)50,000 .. 100,0001.32%00:29 (00:09)
39 Armed and Dangerous Dec 2, 2003 $5.99N/A (N/A/78%)20,000 .. 50,0000%00:00 (00:00)
40 Dark Raid Jun 3, 2014 $3.99N/A (N/A)20,000 .. 50,0000%00:00 (00:00)
41 Descent: FreeSpace – The Great War May 7, 2014 $9.99N/A (N/A)20,000 .. 50,0000%00:00 (00:00)
42 Strike Suit Infinity Apr 30, 2013 $6.99N/A (N/A/66%)100,000 .. 200,0000%00:00 (00:00)
43 Painkiller: Recurring Evil Feb 29, 2012 $9.99N/A (N/A/38%)100,000 .. 200,0000%00:00 (00:00)
44 Ballistic Tanks Sep 20, 2016 $4.99N/A (N/A)0 .. 20,0000%00:00 (00:00)
45 Who's That Flying?! Jan 31, 2011 $5.99N/A (N/A/76%)20,000 .. 50,0000%00:00 (00:00)
46 A Legend of Luca Apr 5, 2016 $19.99N/A (N/A)0 .. 20,0000%00:00 (00:00)
47 SEGA Mega Drive and Genesis Classics Jun 1, 2010 $29.99N/A (N/A)200,000 .. 500,0000.51%00:55 (00:48)
48 Kung Fury: Street Rage May 28, 2015 $2.99N/A (N/A)100,000 .. 200,0001.68%00:03 (00:01)
49 Alien Breed 2: Assault Sep 22, 2010 $9.99N/A (N/A/63%)200,000 .. 500,0000.15%00:21 (00:07)
50 TEMBO THE BADASS ELEPHANT Jul 21, 2015 $14.99N/A (N/A)20,000 .. 50,0000%00:00 (00:00)
51 Exodus from the Earth Oct 24, 2008 $14.99N/A (N/A)0 .. 20,0000%00:00 (00:00)
52 The Way May 20, 2016 $14.99N/A (N/A/67%)100,000 .. 200,0000%00:00 (00:00)
53 Stick 'Em Up 2: Paper Adventures Jul 27, 2015 $2.99N/A (N/A)20,000 .. 50,0000%00:00 (00:00)
54 Shadow Man Mar 9, 1999 $4.99N/A (N/A)20,000 .. 50,0000%00:00 (00:00)
55 Intrusion 2 Sep 11, 2012 $9.99N/A (N/A/80%)200,000 .. 500,0000.37%00:21 (00:14)
56 Dinosis Survival Jul 7, 2017 $4.99N/A (N/A)0 .. 20,0007.69%00:09 (00:03)
57 Bunch of Heroes Sep 21, 2011 $4.99N/A (N/A)100,000 .. 200,0000%00:00 (00:00)
58 Zenodyne R May 29, 2016 $9.99N/A (N/A)20,000 .. 50,0000%00:00 (00:00)
59 AquaNox 2: Revelation Aug 19, 2003 $1.24N/A (N/A/59%)50,000 .. 100,0000%00:00 (00:00)
60 Rot Gut Jul 12, 2016 $1.99N/A (N/A)0 .. 20,0000%00:00 (00:00)
61 Delta Force Land Warrior Nov 7, 2000 $9.99N/A (N/A/74%)20,000 .. 50,0000%00:00 (00:00)
62 Rise of the Triad: Dark War Dec 21, 1994 $6.99N/A (N/A)50,000 .. 100,0000%00:00 (00:00)
63 Legendary Dec 1, 2008 $1.99N/A (N/A/50%)200,000 .. 500,0000.44%03:12 (02:08)
64 Cinemaware Anthology: 1986-1991 Nov 14, 2014 $9.99N/A (N/A)20,000 .. 50,0000%00:00 (00:00)
65 Project: Snowblind Feb 22, 2005 $0.89N/A (N/A/76%)100,000 .. 200,0000%00:00 (00:00)
66 Putt-Putt Saves The Zoo Dec 31, 1995 $6.99N/A (N/A)20,000 .. 50,0000%00:00 (00:00)
67 Alone in the Dark: Illumination Jun 11, 2015 $19.99N/A (N/A)0 .. 20,0000%00:00 (00:00)
68 The Apogee Throwback Pack Jul 1, 2013 $9.99N/A (N/A)100,000 .. 200,0000%00:00 (00:00)
69 Noitu Love 2: Devolution Apr 23, 2012 $4.99N/A (N/A/80%)50,000 .. 100,0000%00:00 (00:00)
70 Scrap Garden - The Day Before Oct 7, 2016 FreeN/A (N/A)100,000 .. 200,0000%00:00 (00:00)
71 Painkiller Redemption Feb 25, 2011 $4.99N/A (N/A/43%)200,000 .. 500,0000.62%00:06 (00:03)
72 LASTFIGHT May 19, 2016 $14.99N/A (N/A)0 .. 20,0000%00:00 (00:00)
73 Project Freedom Oct 14, 2009 $2.99N/A (N/A)20,000 .. 50,0000%00:00 (00:00)
74 ESCHATOS Sep 18, 2015 $14.99N/A (N/A)0 .. 20,0000%00:00 (00:00)
75 Drug Wars Mar 17, 2009 $4.99N/A (N/A/35%)0 .. 20,0000%00:00 (00:00)
76 ABRACA - Imagic Games Mar 31, 2016 $14.99N/A (N/A)0 .. 20,0000%00:00 (00:00)
77 Damnation May 22, 2009 $9.99N/A (N/A/41%)50,000 .. 100,0000%00:00 (00:00)
78 The Stalin Subway: Red Veil Oct 5, 2006 $2.99N/A (N/A)50,000 .. 100,0000%00:00 (00:00)
79 House of the Dying Sun Nov 1, 2016 $19.99N/A (N/A/76%)50,000 .. 100,0000%00:00 (00:00)
80 YAIBA: NINJA GAIDEN Z Mar 21, 2014 $29.99N/A (N/A/49%)20,000 .. 50,0000%00:00 (00:00)
81 Karateka Dec 3, 2012 $3.99N/A (N/A/48%)20,000 .. 50,0000%00:00 (00:00)
82 PLANETS OF WAR Jun 30, 2017 $0.99N/A (N/A)20,000 .. 50,0000%00:00 (00:00)
83 Serious Sam Double D XXL Aug 30, 2011 $9.99N/A (N/A)500,000 .. 1,000,0000.13%01:19 (00:26)
84 Versus: Battle of the Gladiator Aug 26, 2016 N/AN/A (N/A)50,000 .. 100,0000%00:00 (00:00)
85 Chaser Aug 22, 2003 $4.99N/A (N/A/66%)100,000 .. 200,0000.62%02:21 (00:47)
86 Little Big Adventure - Enhanced Edition Oct 14, 1994 $5.99N/A (N/A)0 .. 20,0004.17%00:02 (00:00)
87 Delta Force: Task Force Dagger Jun 27, 2002 $9.99N/A (N/A/51%)20,000 .. 50,0000%00:00 (00:00)
88 Star Trek : 25th Anniversary May 7, 2015 $9.99N/A (N/A)0 .. 20,0000%00:00 (00:00)
89 Rocket Knight May 11, 2010 $14.99N/A (N/A/63%)0 .. 20,0000%00:00 (00:00)
90 Hail to the King: Deathbat Oct 30, 2014 $5.99N/A (N/A)0 .. 20,0000%00:00 (00:00)
91 Conflict: Denied Ops Feb 8, 2008 $0.89N/A (N/A/58%)50,000 .. 100,0000%00:00 (00:00)
92 Kraven Manor Sep 26, 2014 $5.99N/A (N/A/58%)100,000 .. 200,0000.2%00:06 (00:02)
93 Tango Fiesta Sep 24, 2015 $9.99N/A (N/A)20,000 .. 50,0000%00:00 (00:00)
94 Rain Blood Chronicles: Mirage Nov 11, 2013 $4.99N/A (N/A/68%)0 .. 20,0000%00:00 (00:00)
95 Sacred Citadel Apr 16, 2013 $9.99N/A (N/A/61%)500,000 .. 1,000,0000%00:00 (00:00)
96 THOTH Oct 7, 2016 $4.99N/A (N/A)50,000 .. 100,0000.82%00:03 (00:02)
97 Xotic Sep 16, 2011 $9.99N/A (N/A/67%)50,000 .. 100,0000%00:00 (00:00)
98 Skautfold: Shrouded in Sanity May 27, 2016 $4.99N/A (N/A)20,000 .. 50,0004.35%05:55 (01:58)
99 Big Brain Wolf Nov 5, 2009 $4.99N/A (N/A)20,000 .. 50,0000%00:00 (00:00)
100 Cruel Arena Aug 18, 2015 $0.99N/A (N/A)200,000 .. 500,0000%00:00 (00:00)
101 Blacklight: Tango Down Jul 14, 2010 $0.99N/A (N/A/65%)50,000 .. 100,0000%00:00 (00:00)
102 Supercharged Robot VULKAISER Jun 4, 2015 $4.99N/A (N/A)20,000 .. 50,0000%00:00 (00:00)
103 Unreal 2: The Awakening Feb 3, 2003 $14.99N/A (N/A/75%)200,000 .. 500,0000.23%00:01 (00:00)
104 OCEAN CITY RACING: Redux Aug 27, 2016 $2.99N/A (N/A)50,000 .. 100,0000%00:00 (00:00)
105 Majestic Nights Oct 30, 2014 $4.99N/A (N/A/32%)20,000 .. 50,0000%00:00 (00:00)
106 Tiny Barbarian DX Dec 3, 2013 $29.99N/A (N/A)20,000 .. 50,0000%00:00 (00:00)
107 iBomber Attack Nov 1, 2012 $5.99N/A (N/A)50,000 .. 100,0000%00:00 (00:00)
108 Global Ops: Commando Libya Oct 26, 2011 $4.99N/A (N/A/37%)50,000 .. 100,0000%00:00 (00:00)
109 Phantaruk Aug 16, 2016 $4.99N/A (N/A/53%)20,000 .. 50,0000%00:00 (00:00)
110 Coniclysm Mar 26, 2010 $4.99N/A (N/A)0 .. 20,0000%00:00 (00:00)
111 Age of Barbarian Extended Cut May 20, 2016 $12.99N/A (N/A)0 .. 20,0000%00:00 (00:00)
112 Delta Force: Black Hawk Down Mar 24, 2003 $14.99N/A (N/A/77%)20,000 .. 50,0001.69%02:07 (00:42)
113 Mega Man Legacy Collection / ロックマン クラシックス コレクション Aug 24, 2015 $14.99N/A (N/A/85%)100,000 .. 200,0000.94%02:42 (05:42)
114 Prince of Persia Dec 10, 2008 $9.99N/A (N/A/82%)200,000 .. 500,0000.36%00:24 (00:08)
115 Redline Jan 1, 1999 $6.99N/A (N/A)20,000 .. 50,0000%00:00 (00:00)
116 QUAKE Mission Pack 1: Scourge of Armagon Feb 28, 1997 $2.99N/A (N/A)100,000 .. 200,0000%00:00 (00:00)
117 Beyond Space Remastered Edition Jun 16, 2014 $4.99N/A (N/A)20,000 .. 50,0000%00:00 (00:00)
118 Spider: Rite of the Shrouded Moon Aug 6, 2015 $9.99N/A (N/A)20,000 .. 50,0000%00:00 (00:00)
119 Guncraft Aug 9, 2013 $14.99N/A (N/A/73%)100,000 .. 200,0000%00:00 (00:00)
120 Blades of Time Apr 20, 2012 $9.99N/A (N/A/63%)200,000 .. 500,0000%00:00 (00:00)
121 Unbox: Newbie's Adventure Sep 5, 2016 $19.99N/A (N/A/68%)50,000 .. 100,0000.47%03:34 (01:11)
122 Shadow Harvest: Phantom Ops Apr 5, 2011 $9.99N/A (N/A/34%)20,000 .. 50,0000%00:00 (00:00)
123 Skylar & Plux: Adventure On Clover Island May 19, 2017 $14.99N/A (N/A)20,000 .. 50,0005.56%01:11 (00:23)
124 Foreign Legion: Buckets of Blood Aug 4, 2009 $4.99N/A (N/A)50,000 .. 100,0000%00:00 (00:00)
125 Glass Wing Jun 24, 2015 FreeN/A (N/A)50,000 .. 100,0000%00:00 (00:00)
126 Twin Sector Sep 16, 2009 $4.99N/A (N/A)50,000 .. 100,0000%00:00 (00:00)
127 On My Own Feb 26, 2016 $4.99N/A (N/A)0 .. 20,0000%00:00 (00:00)
128 Prince of Persia: Warrior Within Nov 30, 2004 $9.99N/A (N/A/83%)200,000 .. 500,0000%00:00 (00:00)
129 Vertical Drop Heroes HD Jul 25, 2014 $6.99N/A (N/A/70%)200,000 .. 500,0000.39%00:45 (00:29)
130 Project Root May 1, 2014 $9.99N/A (N/A)20,000 .. 50,0000%00:00 (00:00)
131 Hot Tin Roof: The Cat That Wore A Fedora Feb 20, 2015 $14.99N/A (N/A/66%)100,000 .. 200,0000.44%04:06 (01:22)
132 NiGHTS Into Dreams Dec 17, 2012 $7.99N/A (N/A)200,000 .. 500,0000.23%00:14 (00:04)
133 Choplifter HD Jan 11, 2012 N/AN/A (N/A/65%)50,000 .. 100,0000%00:00 (00:00)
134 Yomawari: Night Alone / 夜廻 Oct 25, 2016 $19.99N/A (N/A)50,000 .. 100,0001.23%01:04 (00:42)
135 DogFighter Jun 14, 2010 $2.99N/A (N/A)200,000 .. 500,0000%00:00 (00:00)
136 Black & White Bushido Oct 2, 2015 $12.99N/A (N/A)0 .. 20,0000%00:00 (00:00)
137 Comanche 4 Nov 15, 2001 $9.99N/A (N/A/74%)20,000 .. 50,0000%00:00 (00:00)
138 Below Kryll Sep 7, 2015 $4.99N/A (N/A)0 .. 20,0000%00:00 (00:00)
139 Watchmen: The End is Nigh Mar 4, 2009 $4.99N/A (N/A/61%)20,000 .. 50,0000%00:00 (00:00)
140 Deer Hunt Legends Jan 7, 2013 $4.99N/A (N/A)0 .. 20,0000.91%00:03 (00:01)
141 Frontlines: Fuel of War Feb 27, 2008 $19.99N/A (N/A/73%)200,000 .. 500,0000.36%00:01 (00:00)
142 Super Rad Raygun Nov 15, 2016 $4.99N/A (N/A/64%)0 .. 20,0000%00:00 (00:00)
143 JUDGEMENT SILVERSWORD - Resurrection - Sep 18, 2015 $4.99N/A (N/A)0 .. 20,0000%00:00 (00:00)
144 Kill to Collect Apr 6, 2016 $3.99N/A (N/A/57%)0 .. 20,0000%00:00 (00:00)
145 Cannon Fodder 3 Aug 6, 2012 $14.99N/A (N/A/49%)20,000 .. 50,0000%00:00 (00:00)
146 Overkill VR: Action Shooter FPS Nov 16, 2016 $19.99N/A (N/A)0 .. 20,0000%00:00 (00:00)
147 Capsized Apr 29, 2011 $9.99N/A (N/A/80%)200,000 .. 500,0000%00:00 (00:00)
148 Demon's Crystals Apr 21, 2016 $4.99N/A (N/A)0 .. 20,0000%00:00 (00:00)
149 Kingpin — Life of Crime Jun 1, 1999 $9.99N/A (N/A)50,000 .. 100,0000%00:00 (00:00)
150 Zanzarah: The Hidden Portal Aug 20, 2015 $7.99N/A (N/A)100,000 .. 200,0000%00:00 (00:00)
151 Booster Trooper Apr 16, 2010 $1.99N/A (N/A)20,000 .. 50,0000%00:00 (00:00)
152 Rad Rodgers: World One Dec 1, 2016 $19.99N/A (N/A/72%)0 .. 20,0000%00:00 (00:00)
153 Prince of Persia: The Two Thrones Dec 7, 2005 $9.99N/A (N/A/85%)200,000 .. 500,0000.47%00:30 (00:10)
154 Bird Assassin Feb 8, 2011 $1.99N/A (N/A)100,000 .. 200,0000%00:00 (00:00)
155 Q*bert: Rebooted Jul 1, 2014 N/AN/A (N/A)0 .. 20,0000%00:00 (00:00)
156 Alone in the Dark Nov 18, 2008 $9.99N/A (N/A/55%)20,000 .. 50,0000%00:00 (00:00)
157 Miner Wars 2081 Nov 28, 2012 $9.99N/A (N/A/52%)50,000 .. 100,0000%00:00 (00:00)
158 Scary Girl Apr 9, 2012 $0.97N/A (N/A)0 .. 20,0000%00:00 (00:00)
159 V ARRR Jun 10, 2016 $9.99N/A (N/A)0 .. 20,0000%00:00 (00:00)
160 Wasteland Angel Sep 1, 2011 $9.99N/A (N/A)100,000 .. 200,0000.36%03:44 (01:14)
161 Code of Princess Apr 14, 2016 $14.99N/A (N/A/53%)0 .. 20,0000%00:00 (00:00)
162 Alien Shooter Sep 15, 2003 $4.99N/A (N/A)200,000 .. 500,0001.89%03:03 (03:16)
163 METAL SLUG 2 Apr 14, 2016 $6.99N/A (N/A)50,000 .. 100,0001.1%00:01 (00:00)
164 Watchmen: The End is Nigh Part 2 Jul 29, 2009 $4.99N/A (N/A/44%)20,000 .. 50,0000%00:00 (00:00)
165 Down To One Jan 7, 2016 $0.99N/A (N/A)100,000 .. 200,0000%00:00 (00:00)
166 Aces of the Galaxy Jun 4, 2008 $9.99N/A (N/A)0 .. 20,0000%00:00 (00:00)
167 Blood II: The Chosen + Expansion Oct 31, 1998 $4.99N/A (N/A/72%)20,000 .. 50,0000%00:00 (00:00)
168 GIGANTIC ARMY Mar 6, 2014 $5.99N/A (N/A)50,000 .. 100,0000%00:00 (00:00)
169 The Chaos Engine Aug 29, 2013 $9.99N/A (N/A/40%)50,000 .. 100,0000.48%00:01 (00:00)
170 Primal Fears Jan 8, 2013 $9.99N/A (N/A)50,000 .. 100,0000%00:00 (00:00)
171 Crewsaders Nov 17, 2016 $2.99N/A (N/A)0 .. 20,0000%00:00 (00:00)
172 Garshasp: The Monster Slayer May 9, 2011 $4.99N/A (N/A/49%)50,000 .. 100,0000%00:00 (00:00)
173 Spell Fighter VR Mar 1, 2016 FreeN/A (N/A)100,000 .. 200,0000%00:00 (00:00)
174 MDK May 1, 1997 $9.99N/A (N/A)20,000 .. 50,0000%00:00 (00:00)
175 Umihara Kawase Shun: Steam Edition Nov 24, 2015 $11.99N/A (N/A)0 .. 20,0005.26%00:01 (00:00)
176 Dead Horde Jul 27, 2011 $5.99N/A (N/A)50,000 .. 100,0000%00:00 (00:00)
177 Blood Alloy: Reborn Mar 2, 2016 $12.99N/A (N/A/48%)0 .. 20,0000%00:00 (00:00)
178 Tom Clancy's Rainbow Six Vegas Dec 12, 2006 $9.99N/A (N/A/85%)200,000 .. 500,0000.63%00:16 (00:10)
179 Obludia Jul 18, 2014 $4.99N/A (N/A)20,000 .. 50,0000%00:00 (00:00)
180 Alpha Prime Nov 7, 2007 $4.99N/A (N/A/59%)200,000 .. 500,0000%00:00 (00:00)
181 Shadow Ops: Red Mercury Sep 17, 2004 $6.99N/A (N/A/61%)50,000 .. 100,0001.82%00:08 (00:02)
182 Cold War Sep 27, 2005 $4.99N/A (N/A/64%)20,000 .. 50,0000%00:00 (00:00)
183 LocoCycle Feb 14, 2014 $9.99N/A (N/A)20,000 .. 50,0000%00:00 (00:00)
184 Sonic the Hedgehog 4 - Episode II May 15, 2012 $9.99N/A (N/A/54%)200,000 .. 500,0000.25%00:36 (00:12)
185 Inbound Jul 5, 2016 $2.99N/A (N/A)0 .. 20,0000%00:00 (00:00)
186 Plain Sight Apr 5, 2010 $4.99N/A (N/A/76%)100,000 .. 200,0000%00:00 (00:00)
187 Men of Valor Nov 29, 2004 $9.99N/A (N/A/71%)20,000 .. 50,0000%00:00 (00:00)
188 Alien Shooter: Revisited Apr 15, 2009 $4.99N/A (N/A)200,000 .. 500,0006.82%02:01 (02:17)
189 SHOCK TROOPERS May 18, 2016 $7.99N/A (N/A)20,000 .. 50,0000%00:00 (00:00)
190 Bionic Commando Jul 28, 2009 $9.99N/A (N/A/69%)200,000 .. 500,0000%00:00 (00:00)
191 Insanity's Blade Dec 5, 2014 $5.99N/A (N/A)20,000 .. 50,0000%00:00 (00:00)
192 TimeShift Oct 30, 2007 $19.99N/A (N/A/71%)100,000 .. 200,0000.49%00:33 (00:11)
193 JUJU Dec 10, 2014 $19.99N/A (N/A/65%)0 .. 20,0000%00:00 (00:00)
194 Eterium Apr 15, 2014 $4.99N/A (N/A)100,000 .. 200,0000%00:00 (00:00)
195 Blood Omen 2: Legacy of Kain Mar 29, 2002 $0.97N/A (N/A)200,000 .. 500,0000%00:00 (00:00)
196 Kung Fu Strike - The Warrior's Rise Jul 24, 2012 $9.99N/A (N/A)100,000 .. 200,0000.32%01:21 (00:27)
197 Deus Ex: Breach Jan 24, 2017 FreeN/A (N/A)50,000 .. 100,0000%00:00 (00:00)
198 Garshasp: Temple of the Dragon Sep 24, 2012 $4.99N/A (N/A)20,000 .. 50,0000%00:00 (00:00)
199 Watch This! Sep 23, 2016 $3.99N/A (N/A)200,000 .. 500,0000.88%00:34 (00:22)
200 MDK 2 May 1, 2000 $9.99N/A (N/A/83%)20,000 .. 50,0000%00:00 (00:00)
201 Call of Tomsk-7 Aug 10, 2015 $0.99N/A (N/A)20,000 .. 50,0000%00:00 (00:00)
202 Cobalt Feb 2, 2016 $14.99N/A (N/A/69%)20,000 .. 50,0000%00:00 (00:00)
203 Tom Clancy's Ghost Recon Desert Siege Mar 26, 2002 $4.99N/A (N/A/82%)50,000 .. 100,0000.99%00:09 (00:03)
204 Disney Alice in Wonderland Mar 2, 2010 $19.99N/A (N/A/63%)0 .. 20,0000%00:00 (00:00)
205 Painkiller Overdose Oct 30, 2007 $4.99N/A (N/A/65%)200,000 .. 500,0001%00:44 (00:29)
206 El Matador Sep 25, 2006 $3.99N/A (N/A/54%)20,000 .. 50,0000%00:00 (00:00)
207 BlackSoul: Extended Edition Feb 26, 2014 $6.99N/A (N/A)20,000 .. 50,0000%00:00 (00:00)
208 Dragon's Lair Jun 19, 1983 $9.99N/A (N/A)20,000 .. 50,0000%00:00 (00:00)
209 Deep Black: Reloaded Apr 18, 2012 $29.99N/A (N/A/39%)0 .. 20,0000%00:00 (00:00)
210 Mind OVR Matter May 22, 2017 $4.99N/A (N/A)0 .. 20,0000%00:00 (00:00)
211 NyxQuest: Kindred Spirits Sep 27, 2010 $2.99N/A (N/A)20,000 .. 50,0000%00:00 (00:00)
212 Mytheon Jul 13, 2010 $5.39N/A (N/A)0 .. 20,0000%00:00 (00:00)
213 Zombie Shooter Dec 29, 2007 $4.99N/A (N/A)100,000 .. 200,0000.36%00:39 (00:13)
214 Super Mutant Alien Assault Aug 20, 2015 $2.49N/A (N/A)0 .. 20,0000%00:00 (00:00)
215 Bionic Commando: Rearmed Aug 14, 2008 $9.99N/A (N/A/86%)200,000 .. 500,0000.16%00:05 (00:01)
216 ManaCollect Apr 17, 2015 $6.99N/A (N/A)0 .. 20,0000%00:00 (00:00)
217 The Club Feb 20, 2008 $14.99N/A (N/A/67%)20,000 .. 50,0000%00:00 (00:00)
218 Chernobyl Commando Mar 8, 2013 $0.99N/A (N/A)50,000 .. 100,0000%00:00 (00:00)
219 Ubersoldier II Jul 22, 2008 $0.99N/A (N/A/62%)100,000 .. 200,0000%00:00 (00:00)

Geography of active players over time, share:

Access restricted.

This feature is only available to users with special access rights. Sorry.

If you want to proceed, you need to register or log in first and then back Steam Spy on Patreon. Look for Indie or Pro pledge.

Don't forget to use the same email as on Steam Spy!

Tags over time:

Access restricted.

This feature is only available to users with special access rights. Sorry.

If you want to proceed, you need to register or log in first and then back Steam Spy on Patreon. Look for Indie or Pro pledge.

Don't forget to use the same email as on Steam Spy!

Owners of this game also own:

Access restricted.

This feature is only available to users with special access rights. Sorry.

If you want to proceed, you need to register or log in first and then back Steam Spy on Patreon. Look for Indie or Pro pledge.

Don't forget to use the same email as on Steam Spy!

Playtime distribution:

Access restricted.

This feature is only available to users with special access rights. Sorry.

If you want to proceed, you need to register or log in first and then back Steam Spy on Patreon. Look for Indie or Pro pledge.

Don't forget to use the same email as on Steam Spy!

Playtime (2 weeks):

Access restricted.

This feature is only available to users with special access rights. Sorry.

If you want to proceed, you need to register or log in first and then back Steam Spy on Patreon. Look for Indie or Pro pledge.

Don't forget to use the same email as on Steam Spy!

User reviews:

Login required.

Please register or log in to see this information.